createdAt,value
2023-03-01T00:01:39.958Z,15.17
2023-03-01T00:05:47.865Z,17.27
2023-03-01T00:09:50.859Z,19.37
2023-03-01T00:13:55.686Z,18.63
2023-03-01T00:17:58.634Z,21.20
2023-03-01T00:22:03.493Z,18.70
2023-03-01T00:26:09.505Z,18.43
2023-03-01T00:30:14.426Z,21.83
2023-03-01T00:34:17.442Z,20.70
2023-03-01T00:38:21.865Z,18.67
2023-03-01T00:42:26.136Z,17.50
2023-03-01T00:46:31.519Z,22.17
2023-03-01T00:50:34.901Z,21.20
2023-03-01T00:54:40.358Z,18.73
2023-03-01T00:58:43.777Z,19.17
2023-03-01T01:02:46.880Z,18.90
2023-03-01T01:06:49.867Z,19.40
2023-03-01T01:10:54.300Z,20.53
2023-03-01T01:14:57.321Z,26.07
2023-03-01T01:19:00.427Z,19.53
2023-03-01T01:23:04.859Z,20.00
2023-03-01T01:27:09.382Z,19.50
2023-03-01T01:31:12.428Z,22.77
2023-03-01T01:35:15.529Z,20.57
2023-03-01T01:39:19.288Z,20.33
2023-03-01T01:43:26.250Z,23.30
2023-03-01T01:47:35.079Z,19.97
2023-03-01T01:51:41.148Z,22.70
2023-03-01T01:55:47.437Z,26.17
2023-03-01T01:59:54.770Z,20.97
2023-03-01T02:03:58.191Z,23.50
2023-03-01T02:08:01.857Z,25.00
2023-03-01T02:12:06.857Z,19.27
2023-03-01T02:16:13.741Z,23.77
2023-03-01T02:20:25.325Z,23.97
2023-03-01T02:24:36.114Z,24.63
2023-03-01T02:28:42.391Z,28.57
2023-03-01T02:32:45.693Z,24.77
2023-03-01T02:36:51.940Z,22.03
2023-03-01T02:40:56.849Z,22.13
2023-03-01T02:45:01.259Z,23.60
2023-03-01T02:49:04.402Z,25.00
2023-03-01T02:53:15.297Z,26.27
2023-03-01T02:57:18.766Z,25.13
2023-03-01T03:01:24.110Z,24.80
2023-03-01T03:05:29.623Z,24.33
2023-03-01T03:09:34.074Z,25.20
2023-03-01T03:13:37.201Z,28.30
2023-03-01T03:17:45.266Z,25.63
2023-03-01T03:21:50.636Z,25.27
2023-03-01T03:25:53.934Z,23.13
2023-03-01T03:29:57.307Z,25.90
2023-03-01T03:34:01.627Z,27.90
2023-03-01T03:38:10.294Z,28.17
2023-03-01T03:42:13.245Z,21.77
2023-03-01T03:46:16.439Z,26.33
2023-03-01T03:50:21.081Z,27.23
2023-03-01T03:54:24.327Z,25.50
2023-03-01T03:58:27.910Z,26.70
2023-03-01T04:02:31.008Z,21.97
2023-03-01T04:06:35.528Z,25.00
2023-03-01T04:10:40.683Z,27.73
2023-03-01T04:14:43.741Z,24.70
2023-03-01T04:18:46.951Z,27.20
2023-03-01T04:22:51.265Z,23.30
2023-03-01T04:26:54.518Z,23.13
2023-03-01T04:30:59.006Z,25.90
2023-03-01T04:35:02.350Z,26.40
2023-03-01T04:39:13.176Z,24.37
2023-03-01T04:43:16.610Z,27.23
2023-03-01T04:47:19.637Z,24.10
2023-03-01T04:51:22.969Z,25.50
2023-03-01T04:55:28.485Z,24.30
2023-03-01T04:59:31.754Z,24.50
2023-03-01T05:03:34.720Z,25.10
2023-03-01T05:07:37.756Z,23.77
2023-03-01T05:11:42.101Z,24.63
2023-03-01T05:15:45.190Z,25.80
2023-03-01T05:19:48.272Z,27.23
2023-03-01T05:23:51.503Z,23.20
2023-03-01T05:27:56.093Z,21.77
2023-03-01T05:32:01.963Z,23.10
2023-03-01T05:36:05.838Z,28.07
2023-03-01T05:40:16.518Z,24.50
2023-03-01T05:44:21.245Z,22.40
2023-03-01T05:48:24.363Z,27.60
2023-03-01T05:52:27.297Z,23.67
2023-03-01T05:56:31.354Z,26.77
2023-03-01T06:00:36.481Z,21.43
2023-03-01T06:04:39.910Z,23.07
2023-03-01T06:08:42.901Z,24.83
2023-03-01T06:12:46.682Z,24.63
2023-03-01T06:16:51.020Z,25.57
2023-03-01T06:20:58.058Z,24.30
2023-03-01T06:25:01.066Z,24.60
2023-03-01T06:29:04.386Z,24.03
2023-03-01T06:33:08.793Z,24.27
2023-03-01T06:37:12.346Z,23.87
2023-03-01T06:41:15.308Z,22.70
2023-03-01T06:45:19.826Z,24.77
2023-03-01T06:49:24.453Z,22.73
2023-03-01T06:53:27.508Z,21.43
2023-03-01T06:57:30.954Z,22.70
2023-03-01T07:01:34.011Z,21.63
2023-03-01T07:05:38.559Z,28.37
2023-03-01T07:09:41.693Z,23.70
2023-03-01T07:13:44.650Z,24.77
2023-03-01T07:17:49.014Z,27.43
2023-03-01T07:21:53.605Z,24.00
2023-03-01T07:25:57.121Z,28.23
2023-03-01T07:30:00.340Z,23.73
2023-03-01T07:34:03.443Z,23.10
2023-03-01T07:38:07.797Z,23.37
2023-03-01T07:42:11.136Z,24.93
2023-03-01T07:46:14.116Z,22.73
2023-03-01T07:50:17.840Z,25.87
2023-03-01T07:54:22.588Z,26.73
2023-03-01T07:58:25.794Z,22.73
2023-03-01T08:02:28.742Z,22.45
2023-03-01T08:06:32.397Z,23.83
2023-03-01T08:10:38.437Z,26.97
2023-03-01T08:14:41.563Z,23.52
2023-03-01T08:18:45.446Z,21.65
2023-03-01T08:22:48.629Z,21.65
2023-03-01T08:26:52.954Z,24.10
2023-03-01T08:30:56.253Z,25.95
2023-03-01T08:34:59.384Z,25.95
2023-03-01T08:39:02.809Z,19.90
2023-03-01T08:43:07.179Z,22.35
2023-03-01T08:47:10.356Z,26.75
2023-03-01T08:51:16.069Z,22.40
2023-03-01T08:55:19.233Z,23.73
2023-03-01T08:59:23.804Z,25.23
2023-03-01T09:03:27.373Z,19.42
2023-03-01T09:07:30.428Z,21.80
2023-03-01T09:11:34.291Z,23.77
2023-03-01T09:15:40.384Z,22.98
2023-03-01T09:19:43.455Z,19.35
2023-03-01T09:23:48.044Z,24.48
2023-03-01T09:27:53.290Z,24.65
2023-03-01T09:31:57.838Z,24.95
2023-03-01T09:36:01.433Z,26.83
2023-03-01T09:40:06.329Z,22.80
2023-03-01T09:44:18.391Z,22.83
2023-03-01T09:48:26.141Z,20.67
2023-03-01T09:52:34.918Z,21.80
2023-03-01T09:56:41.834Z,22.48
2023-03-01T10:00:47.329Z,19.73
2023-03-01T10:04:53.159Z,20.95
2023-03-01T10:09:00.752Z,20.85
2023-03-01T10:13:09.155Z,20.05
2023-03-01T10:17:22.027Z,23.20
2023-03-01T10:21:30.379Z,20.50
2023-03-01T10:25:47.028Z,18.75
2023-03-01T10:30:00.565Z,21.85
2023-03-01T10:34:03.959Z,20.98
2023-03-01T10:38:10.419Z,18.08
2023-03-01T10:42:32.483Z,18.38
2023-03-01T10:46:38.685Z,21.33
2023-03-01T10:50:42.801Z,15.07
2023-03-01T10:54:54.915Z,17.20
2023-03-01T10:59:03.070Z,17.38
2023-03-01T11:03:14.091Z,18.48
2023-03-01T11:07:17.199Z,21.42
2023-03-01T11:11:28.351Z,19.90
2023-03-01T11:15:31.908Z,17.85
2023-03-01T11:19:35.337Z,13.10
2023-03-01T11:23:41.746Z,13.95
2023-03-01T11:27:47.608Z,13.20
2023-03-01T11:31:57.887Z,15.65
2023-03-01T11:36:05.424Z,14.75
2023-03-01T11:40:15.782Z,15.80
2023-03-01T11:44:25.357Z,13.70
2023-03-01T11:48:49.715Z,11.45
2023-03-01T11:53:03.871Z,13.52
2023-03-01T11:57:20.790Z,13.55
2023-03-01T12:01:39.751Z,14.52
2023-03-01T12:06:07.658Z,11.88
2023-03-01T12:10:24.434Z,14.18
2023-03-01T12:14:50.425Z,14.27
2023-03-01T12:19:13.152Z,12.85
2023-03-01T12:23:41.101Z,15.07
2023-03-01T12:28:16.490Z,13.65
2023-03-01T12:32:42.316Z,13.05
2023-03-01T12:36:59.994Z,14.52
2023-03-01T12:41:25.369Z,14.77
2023-03-01T12:45:42.491Z,15.73
2023-03-01T12:49:50.322Z,13.50
2023-03-01T12:53:57.086Z,16.40
2023-03-01T12:58:10.728Z,14.40
2023-03-01T13:02:24.048Z,16.13
2023-03-01T13:06:43.336Z,15.13
2023-03-01T13:10:52.482Z,15.98
2023-03-01T13:14:56.803Z,15.10
2023-03-01T13:19:10.905Z,15.63
2023-03-01T13:23:29.766Z,18.25
2023-03-01T13:27:34.153Z,17.15
2023-03-01T13:32:01.682Z,14.98
2023-03-01T13:36:08.110Z,16.30
2023-03-01T13:40:48.397Z,15.38
2023-03-01T13:44:52.820Z,14.90
2023-03-01T13:48:58.806Z,12.60
2023-03-01T13:53:05.275Z,16.85
2023-03-01T13:57:21.515Z,16.13
2023-03-01T14:01:29.943Z,15.70
2023-03-01T14:05:33.668Z,18.15
2023-03-01T14:09:42.204Z,17.38
2023-03-01T14:14:00.823Z,17.30
2023-03-01T14:18:15.005Z,29.52
2023-03-01T14:22:24.047Z,16.73
2023-03-01T14:26:27.538Z,18.15
2023-03-01T14:30:35.051Z,17.70
2023-03-01T14:34:45.546Z,16.05
2023-03-01T14:38:49.716Z,18.20
2023-03-01T14:42:53.666Z,14.98
2023-03-01T14:46:58.393Z,14.98
2023-03-01T14:51:03.496Z,19.35
2023-03-01T14:55:09.540Z,19.30
2023-03-01T14:59:13.395Z,18.33
2023-03-01T15:03:25.775Z,13.68
2023-03-01T15:07:33.610Z,14.57
2023-03-01T15:11:38.021Z,19.75
2023-03-01T15:15:44.925Z,15.70
2023-03-01T15:19:48.746Z,15.60
2023-03-01T15:23:56.461Z,17.17
2023-03-01T15:28:02.128Z,14.32
2023-03-01T15:32:08.040Z,16.85
2023-03-01T15:36:33.853Z,16.10
2023-03-01T15:40:50.952Z,13.63
2023-03-01T15:45:10.246Z,16.60
2023-03-01T15:49:29.831Z,14.45
2023-03-01T15:53:33.144Z,14.63
2023-03-01T15:57:37.518Z,17.60
2023-03-01T16:01:40.545Z,16.13
2023-03-01T16:05:44.076Z,13.75
2023-03-01T16:09:47.224Z,16.00
2023-03-01T16:13:51.874Z,13.75
2023-03-01T16:17:55.275Z,14.70
2023-03-01T16:21:58.318Z,16.13
2023-03-01T16:26:01.674Z,14.60
2023-03-01T16:30:07.195Z,14.50
2023-03-01T16:34:10.924Z,15.30
2023-03-01T16:38:14.007Z,20.10
2023-03-01T16:42:17.441Z,12.45
2023-03-01T16:46:23.953Z,13.57
2023-03-01T16:50:27.274Z,14.65
2023-03-01T16:54:30.499Z,13.98
2023-03-01T16:58:33.623Z,16.15
2023-03-01T17:02:38.258Z,13.70
2023-03-01T17:06:41.596Z,19.10
2023-03-01T17:10:44.920Z,12.77
2023-03-01T17:14:50.082Z,18.77
2023-03-01T17:18:55.103Z,18.08
2023-03-01T17:22:58.861Z,15.90
2023-03-01T17:27:02.041Z,19.48
2023-03-01T17:31:06.802Z,20.55
2023-03-01T17:35:12.255Z,17.40
2023-03-01T17:39:15.455Z,16.33
2023-03-01T17:43:20.089Z,16.77
2023-03-01T17:47:23.205Z,19.80
2023-03-01T17:51:27.604Z,17.75
2023-03-01T17:55:30.868Z,17.02
2023-03-01T17:59:34.129Z,18.95
2023-03-01T18:03:37.413Z,18.50
2023-03-01T18:07:41.937Z,18.33
2023-03-01T18:11:46.921Z,18.35
2023-03-01T18:15:50.833Z,20.40
2023-03-01T18:19:56.224Z,19.10
2023-03-01T18:24:00.671Z,18.95
2023-03-01T18:28:04.540Z,18.35
2023-03-01T18:32:08.548Z,21.80
2023-03-01T18:36:20.270Z,19.30
2023-03-01T18:40:24.635Z,23.77
2023-03-01T18:44:27.756Z,20.40
2023-03-01T18:48:30.713Z,21.02
2023-03-01T18:52:33.750Z,20.85
2023-03-01T18:56:38.437Z,18.25
2023-03-01T19:00:41.691Z,19.92
2023-03-01T19:04:44.656Z,20.40
2023-03-01T19:08:48.297Z,21.15
2023-03-01T19:12:52.676Z,19.08
2023-03-01T19:16:55.780Z,20.90
2023-03-01T19:21:03.883Z,19.73
2023-03-01T19:25:08.554Z,23.08
2023-03-01T19:29:13.164Z,21.80
2023-03-01T19:33:16.184Z,21.77
2023-03-01T19:37:19.179Z,22.67
2023-03-01T19:41:22.707Z,20.63
2023-03-01T19:45:33.356Z,21.23
2023-03-01T19:49:37.841Z,25.77
2023-03-01T19:53:42.002Z,22.63
2023-03-01T19:57:45.296Z,19.15
2023-03-01T20:01:49.778Z,23.77
2023-03-01T20:05:52.936Z,22.23
2023-03-01T20:09:56.085Z,21.67
2023-03-01T20:13:59.232Z,20.52
2023-03-01T20:18:03.591Z,23.67
2023-03-01T20:22:06.795Z,22.63
2023-03-01T20:26:15.148Z,22.80
2023-03-01T20:30:18.741Z,22.92
2023-03-01T20:34:23.090Z,20.65
2023-03-01T20:38:27.238Z,25.08
2023-03-01T20:42:30.200Z,21.70
2023-03-01T20:46:34.822Z,24.00
2023-03-01T20:50:42.851Z,22.35
2023-03-01T20:54:45.930Z,23.05
2023-03-01T20:58:49.472Z,23.80
2023-03-01T21:02:52.827Z,22.50
2023-03-01T21:06:57.218Z,23.23
2023-03-01T21:11:00.836Z,21.52
2023-03-01T21:15:03.976Z,19.38
2023-03-01T21:19:07.422Z,21.35
2023-03-01T21:23:11.749Z,22.48
2023-03-01T21:27:14.804Z,22.40
2023-03-01T21:31:19.947Z,20.08
2023-03-01T21:35:23.152Z,22.48
2023-03-01T21:39:28.949Z,22.85
2023-03-01T21:43:32.081Z,27.40
2023-03-01T21:47:36.237Z,22.50
2023-03-01T21:51:39.698Z,30.73
2023-03-01T21:55:49.370Z,29.75
2023-03-01T21:59:52.393Z,31.33
2023-03-01T22:03:56.162Z,23.33
2023-03-01T22:07:59.272Z,29.85
2023-03-01T22:12:03.724Z,30.92
2023-03-01T22:16:07.733Z,30.33
2023-03-01T22:20:12.065Z,35.35
2023-03-01T22:24:15.215Z,31.50
2023-03-01T22:28:20.266Z,30.80
2023-03-01T22:32:23.532Z,33.60
2023-03-01T22:36:27.101Z,35.40
2023-03-01T22:40:30.244Z,35.97
2023-03-01T22:44:34.572Z,34.90
2023-03-01T22:48:37.639Z,32.88
2023-03-01T22:52:40.802Z,35.35
2023-03-01T22:56:44.236Z,33.58
2023-03-01T23:00:48.567Z,38.03
2023-03-01T23:04:54.178Z,33.80
2023-03-01T23:08:58.701Z,35.00
2023-03-01T23:13:01.737Z,40.63
2023-03-01T23:17:08.067Z,33.67
2023-03-01T23:21:12.699Z,38.33
2023-03-01T23:25:16.092Z,34.95
2023-03-01T23:29:19.110Z,37.65
2023-03-01T23:33:23.490Z,37.47
2023-03-01T23:37:31.163Z,36.75
2023-03-01T23:41:36.276Z,41.30
2023-03-01T23:45:42.983Z,41.88
2023-03-01T23:49:47.321Z,40.05
2023-03-01T23:53:55.318Z,35.10
2023-03-01T23:57:58.268Z,35.53
